createdAt,value
2022-12-26T00:02:01.484Z,2.53
2022-12-26T00:04:04.012Z,2.00
2022-12-26T00:06:12.514Z,2.28
2022-12-26T00:08:14.114Z,2.13
2022-12-26T00:10:15.738Z,2.60
2022-12-26T00:12:17.387Z,2.35
2022-12-26T00:14:19.064Z,2.03
2022-12-26T00:16:21.592Z,2.15
2022-12-26T00:18:23.312Z,2.35
2022-12-26T00:20:24.995Z,1.98
2022-12-26T00:22:26.731Z,2.60
2022-12-26T00:24:28.475Z,1.98
2022-12-26T00:26:32.305Z,2.42
2022-12-26T00:28:33.962Z,2.20
2022-12-26T00:30:37.988Z,1.98
2022-12-26T00:32:39.644Z,2.25
2022-12-26T00:34:41.309Z,2.20
2022-12-26T00:36:43.039Z,2.17
2022-12-26T00:38:45.448Z,2.22
2022-12-26T00:40:47.102Z,1.92
2022-12-26T00:42:48.748Z,2.38
2022-12-26T00:44:50.696Z,2.35
2022-12-26T00:46:52.402Z,2.15
2022-12-26T00:48:54.277Z,2.17
2022-12-26T00:50:56.295Z,2.08
2022-12-26T00:52:57.956Z,2.17
2022-12-26T00:54:59.636Z,1.90
2022-12-26T00:57:01.328Z,2.05
2022-12-26T00:59:02.987Z,2.30
2022-12-26T01:01:17.735Z,2.15
2022-12-26T01:03:20.256Z,2.17
2022-12-26T01:05:22.009Z,1.90
2022-12-26T01:07:23.689Z,2.20
2022-12-26T01:09:25.305Z,1.88
2022-12-26T01:11:40.245Z,2.10
2022-12-26T01:13:43.756Z,2.03
2022-12-26T01:15:52.711Z,1.80
2022-12-26T01:17:54.341Z,1.98
2022-12-26T01:19:56.334Z,2.28
2022-12-26T01:21:57.992Z,1.85
2022-12-26T01:24:00.134Z,1.85
2022-12-26T01:26:16.528Z,1.67
2022-12-26T01:28:21.074Z,1.77
2022-12-26T01:30:22.704Z,2.05
2022-12-26T01:32:24.496Z,2.00
2022-12-26T01:34:26.174Z,1.70
2022-12-26T01:36:27.874Z,1.80
2022-12-26T01:38:29.522Z,2.00
2022-12-26T01:40:31.995Z,1.95
2022-12-26T01:42:39.547Z,1.75
2022-12-26T01:45:02.383Z,1.85
2022-12-26T01:47:04.053Z,1.92
2022-12-26T01:49:30.779Z,1.80
2022-12-26T01:51:36.764Z,1.80
2022-12-26T01:53:47.991Z,1.88
2022-12-26T01:55:59.161Z,1.55
2022-12-26T02:00:05.857Z,1.58
2022-12-26T02:02:08.536Z,1.70
2022-12-26T02:04:33.913Z,1.75
2022-12-26T02:06:35.841Z,1.60
2022-12-26T02:08:39.244Z,1.92
2022-12-26T02:11:18.199Z,1.80
2022-12-26T02:13:20.519Z,2.17
2022-12-26T02:15:22.221Z,1.67
2022-12-26T02:17:26.083Z,1.55
2022-12-26T02:19:47.000Z,1.73
2022-12-26T02:22:26.044Z,1.80
2022-12-26T02:24:48.884Z,1.80
2022-12-26T02:27:02.767Z,1.85
2022-12-26T02:29:28.278Z,1.60
2022-12-26T02:31:45.629Z,1.75
2022-12-26T02:34:04.078Z,1.80
2022-12-26T02:36:17.238Z,2.15
2022-12-26T02:38:29.746Z,1.42
2022-12-26T02:40:34.489Z,2.03
2022-12-26T02:42:42.140Z,2.20
2022-12-26T02:45:10.922Z,1.70
2022-12-26T02:47:26.211Z,1.63
2022-12-26T02:50:07.932Z,1.50
2022-12-26T02:52:37.255Z,1.90
2022-12-26T02:55:06.819Z,1.70
2022-12-26T02:57:32.061Z,1.85
2022-12-26T03:00:01.133Z,1.55
2022-12-26T03:02:23.781Z,1.65
2022-12-26T03:04:48.567Z,1.88
2022-12-26T03:07:15.189Z,1.60
2022-12-26T03:09:50.780Z,1.67
2022-12-26T03:12:15.827Z,1.50
2022-12-26T03:14:29.940Z,1.55
2022-12-26T03:16:50.776Z,1.40
2022-12-26T03:19:02.693Z,1.75
2022-12-26T03:21:05.832Z,1.50
2022-12-26T03:23:17.735Z,1.83
2022-12-26T03:26:11.565Z,1.58
2022-12-26T03:28:14.215Z,1.60
2022-12-26T03:30:34.806Z,1.38
2022-12-26T03:32:43.918Z,1.42
2022-12-26T03:34:45.537Z,1.60
2022-12-26T03:37:07.008Z,1.33
2022-12-26T03:39:55.318Z,1.40
2022-12-26T03:42:28.581Z,1.20
2022-12-26T03:44:54.035Z,1.50
2022-12-26T03:47:26.083Z,1.73
2022-12-26T03:49:51.855Z,1.42
2022-12-26T03:52:17.892Z,1.58
2022-12-26T03:54:53.315Z,1.63
2022-12-26T03:57:22.324Z,1.58
2022-12-26T04:00:07.955Z,1.50
2022-12-26T04:02:30.513Z,1.50
2022-12-26T04:04:54.381Z,1.50
2022-12-26T04:07:28.047Z,1.60
2022-12-26T04:10:26.906Z,1.10
2022-12-26T04:12:49.220Z,1.38
2022-12-26T04:15:19.425Z,1.40
2022-12-26T04:18:09.863Z,1.52
2022-12-26T04:20:18.873Z,1.50
2022-12-26T04:22:58.145Z,1.85
2022-12-26T04:25:48.862Z,1.35
2022-12-26T04:28:11.427Z,1.10
2022-12-26T04:30:31.848Z,1.30
2022-12-26T04:33:01.107Z,1.75
2022-12-26T04:35:41.530Z,1.30
2022-12-26T04:38:04.464Z,1.42
2022-12-26T04:40:29.517Z,1.55
2022-12-26T04:42:50.869Z,1.40
2022-12-26T04:44:54.103Z,1.50
2022-12-26T04:46:56.691Z,1.50
2022-12-26T04:49:18.607Z,1.33
2022-12-26T04:51:20.252Z,1.50
2022-12-26T04:53:22.076Z,1.30
2022-12-26T04:55:23.881Z,1.30
2022-12-26T04:57:25.483Z,1.13
2022-12-26T04:59:27.203Z,1.50
2022-12-26T05:01:47.628Z,1.10
2022-12-26T05:04:08.084Z,1.40
2022-12-26T05:06:28.932Z,1.50
2022-12-26T05:09:00.753Z,1.30
2022-12-26T05:11:02.373Z,1.55
2022-12-26T05:13:04.020Z,1.60
2022-12-26T05:15:06.151Z,1.42
2022-12-26T05:17:26.761Z,1.38
2022-12-26T05:19:47.358Z,1.35
2022-12-26T05:22:07.958Z,1.25
2022-12-26T05:24:28.939Z,1.30
2022-12-26T05:26:49.416Z,1.40
2022-12-26T05:28:57.875Z,1.37
2022-12-26T05:30:59.609Z,1.50
2022-12-26T05:33:20.173Z,1.23
2022-12-26T05:35:22.000Z,1.50
2022-12-26T05:37:23.877Z,1.38
2022-12-26T05:39:25.656Z,1.50
2022-12-26T05:41:27.648Z,1.08
2022-12-26T05:43:29.357Z,1.02
2022-12-26T05:45:31.071Z,1.17
2022-12-26T05:47:32.738Z,1.45
2022-12-26T05:49:34.340Z,1.35
2022-12-26T05:51:36.354Z,1.10
2022-12-26T05:53:37.997Z,1.33
2022-12-26T05:55:40.286Z,1.30
2022-12-26T05:57:41.912Z,1.20
2022-12-26T05:59:43.559Z,1.42
2022-12-26T06:01:45.373Z,1.50
2022-12-26T06:03:49.504Z,1.33
2022-12-26T06:05:51.188Z,1.20
2022-12-26T06:07:52.849Z,1.42
2022-12-26T06:09:54.521Z,1.23
2022-12-26T06:11:56.166Z,1.15
2022-12-26T06:13:58.747Z,1.23
2022-12-26T06:16:05.039Z,1.38
2022-12-26T06:18:06.718Z,1.40
2022-12-26T06:20:08.737Z,1.30
2022-12-26T06:22:11.156Z,1.40
2022-12-26T06:24:14.154Z,1.40
2022-12-26T06:26:16.899Z,1.80
2022-12-26T06:28:18.544Z,1.80
2022-12-26T06:30:20.165Z,1.65
2022-12-26T06:32:21.926Z,1.60
2022-12-26T06:34:23.998Z,1.42
2022-12-26T06:36:27.576Z,1.20
2022-12-26T06:38:29.186Z,1.23
2022-12-26T06:40:30.929Z,1.60
2022-12-26T06:42:32.587Z,1.20
2022-12-26T06:44:34.200Z,1.08
2022-12-26T06:46:35.891Z,1.27
2022-12-26T06:48:39.700Z,1.33
2022-12-26T06:50:41.652Z,1.30
2022-12-26T06:52:43.316Z,1.48
2022-12-26T06:54:44.942Z,1.70
2022-12-26T06:56:46.608Z,1.50
2022-12-26T06:58:52.104Z,1.00
2022-12-26T07:00:53.839Z,1.00
2022-12-26T07:02:55.781Z,1.42
2022-12-26T07:04:57.479Z,1.08
2022-12-26T07:06:59.072Z,1.27
2022-12-26T07:09:08.272Z,1.38
2022-12-26T07:11:18.105Z,0.95
2022-12-26T07:13:19.765Z,1.35
2022-12-26T07:15:21.440Z,1.50
2022-12-26T07:17:23.113Z,1.40
2022-12-26T07:19:24.856Z,1.60
2022-12-26T07:21:27.274Z,1.77
2022-12-26T07:23:30.761Z,1.85
2022-12-26T07:25:32.452Z,1.75
2022-12-26T07:27:34.151Z,1.60
2022-12-26T07:29:36.016Z,1.33
2022-12-26T07:31:37.993Z,1.63
2022-12-26T07:33:39.607Z,1.73
2022-12-26T07:35:41.493Z,1.80
2022-12-26T07:37:43.173Z,1.50
2022-12-26T07:39:44.887Z,1.52
2022-12-26T07:41:58.546Z,1.90
2022-12-26T07:44:00.490Z,1.50
2022-12-26T07:46:02.192Z,1.70
2022-12-26T07:48:03.910Z,1.33
2022-12-26T07:50:06.005Z,1.50
2022-12-26T07:52:07.720Z,1.58
2022-12-26T07:54:11.526Z,1.58
2022-12-26T07:56:13.639Z,1.45
2022-12-26T07:58:15.243Z,1.60
2022-12-26T08:00:18.962Z,2.13
2022-12-26T08:02:20.927Z,1.90
2022-12-26T08:04:22.779Z,1.90
2022-12-26T08:06:24.543Z,1.80
2022-12-26T08:08:26.231Z,34.72
2022-12-26T08:10:28.106Z,27.90
2022-12-26T08:12:31.883Z,23.83
2022-12-26T08:14:33.526Z,18.63
2022-12-26T08:16:35.221Z,15.73
2022-12-26T08:18:37.065Z,17.02
2022-12-26T08:20:38.694Z,15.82
2022-12-26T08:22:40.325Z,15.70
2022-12-26T08:24:41.979Z,16.98
2022-12-26T08:26:43.643Z,16.33
2022-12-26T08:28:45.272Z,14.82
2022-12-26T08:30:47.128Z,14.02
2022-12-26T08:32:50.452Z,13.05
2022-12-26T08:34:52.117Z,13.70
2022-12-26T08:36:53.760Z,13.20
2022-12-26T08:38:55.391Z,12.13
2022-12-26T08:40:58.135Z,12.23
2022-12-26T08:43:21.459Z,12.45
2022-12-26T08:45:21.861Z,11.52
2022-12-26T08:47:26.490Z,12.02
2022-12-26T08:49:28.133Z,12.00
2022-12-26T08:51:29.897Z,10.68
2022-12-26T08:53:32.942Z,10.25
2022-12-26T08:55:34.662Z,11.18
2022-12-26T08:57:36.342Z,10.02
2022-12-26T08:59:37.976Z,11.05
2022-12-26T09:01:40.300Z,9.32
2022-12-26T09:03:42.290Z,9.82
2022-12-26T09:05:44.436Z,9.45
2022-12-26T09:07:46.069Z,9.82
2022-12-26T09:09:48.553Z,8.77
2022-12-26T09:11:50.238Z,8.68
2022-12-26T09:13:51.912Z,8.65
2022-12-26T09:15:53.563Z,9.35
2022-12-26T09:17:55.184Z,8.27
2022-12-26T09:19:56.829Z,8.23
2022-12-26T09:22:17.822Z,8.20
2022-12-26T09:24:19.554Z,8.20
2022-12-26T09:26:21.174Z,7.07
2022-12-26T09:28:22.889Z,8.07
2022-12-26T09:30:24.560Z,7.20
2022-12-26T09:32:26.215Z,6.95
2022-12-26T09:34:27.860Z,7.22
2022-12-26T09:36:33.118Z,6.20
2022-12-26T09:38:36.328Z,6.50
2022-12-26T09:40:57.022Z,6.65
2022-12-26T09:43:37.907Z,5.90
2022-12-26T09:45:51.348Z,6.78
2022-12-26T09:47:55.505Z,6.57
2022-12-26T09:50:09.253Z,5.85
2022-12-26T09:52:15.841Z,5.88
2022-12-26T09:54:34.583Z,5.47
2022-12-26T09:59:04.895Z,5.85
2022-12-26T10:01:17.994Z,5.63
2022-12-26T10:03:20.380Z,5.18
2022-12-26T10:05:25.971Z,5.40
2022-12-26T10:07:40.461Z,5.38
2022-12-26T10:09:49.052Z,5.00
2022-12-26T10:12:02.734Z,5.70
2022-12-26T10:14:19.779Z,4.72
2022-12-26T10:16:39.173Z,5.13
2022-12-26T10:18:59.829Z,4.30
2022-12-26T10:21:38.372Z,4.60
2022-12-26T10:23:45.516Z,4.57
2022-12-26T10:25:58.610Z,4.75
2022-12-26T10:28:02.713Z,4.20
2022-12-26T10:30:07.369Z,3.95
2022-12-26T10:32:28.265Z,4.38
2022-12-26T10:34:50.967Z,4.07
2022-12-26T10:37:14.344Z,4.07
2022-12-26T10:39:46.835Z,4.72
2022-12-26T10:41:53.433Z,3.58
2022-12-26T10:43:55.135Z,3.40
2022-12-26T10:46:14.675Z,3.63
2022-12-26T10:48:16.899Z,3.67
2022-12-26T10:50:27.581Z,3.28
2022-12-26T10:54:36.479Z,3.38
2022-12-26T10:56:38.348Z,4.05
2022-12-26T10:58:41.005Z,2.95
2022-12-26T11:00:43.439Z,3.75
2022-12-26T11:02:45.259Z,2.95
2022-12-26T11:07:27.533Z,3.33
2022-12-26T11:09:39.959Z,3.42
2022-12-26T11:11:47.625Z,3.17
2022-12-26T11:14:00.840Z,3.20
2022-12-26T11:16:04.578Z,3.20
2022-12-26T11:18:34.829Z,2.95
2022-12-26T11:20:36.651Z,3.42
2022-12-26T11:22:38.356Z,2.90
2022-12-26T11:24:40.081Z,2.85
2022-12-26T11:26:41.727Z,4.07
2022-12-26T11:28:43.453Z,3.95
2022-12-26T11:30:48.100Z,3.90
2022-12-26T11:33:14.252Z,3.35
2022-12-26T11:35:23.490Z,3.88
2022-12-26T11:37:31.968Z,3.53
2022-12-26T11:39:37.535Z,4.32
2022-12-26T11:41:41.649Z,3.03
2022-12-26T11:43:43.496Z,3.25
2022-12-26T11:45:50.099Z,4.15
2022-12-26T11:47:54.993Z,4.32
2022-12-26T11:50:02.327Z,3.88
2022-12-26T11:52:37.421Z,3.22
2022-12-26T11:54:49.875Z,3.08
2022-12-26T11:57:03.658Z,3.17
2022-12-26T11:59:20.746Z,3.00
2022-12-26T12:01:22.450Z,2.97
2022-12-26T12:03:32.499Z,3.13
2022-12-26T12:05:48.944Z,3.60
2022-12-26T12:08:03.304Z,3.13
2022-12-26T12:10:28.222Z,3.10
2022-12-26T12:12:45.985Z,2.20
2022-12-26T12:15:16.895Z,2.92
2022-12-26T12:17:37.015Z,3.28
2022-12-26T12:19:47.422Z,3.00
2022-12-26T12:22:19.680Z,2.45
2022-12-26T12:24:39.442Z,2.80
2022-12-26T12:26:54.897Z,2.80
2022-12-26T12:29:10.847Z,3.05
2022-12-26T12:31:26.561Z,3.28
2022-12-26T12:33:53.747Z,3.22
2022-12-26T12:36:04.379Z,3.40
2022-12-26T12:38:14.891Z,3.70
2022-12-26T12:40:31.532Z,3.63
2022-12-26T12:42:46.630Z,3.85
2022-12-26T12:45:03.278Z,3.47
2022-12-26T12:47:07.779Z,3.58
2022-12-26T12:49:50.995Z,3.28
2022-12-26T12:52:13.732Z,3.67
2022-12-26T12:54:40.683Z,2.75
2022-12-26T12:56:54.334Z,3.25
2022-12-26T12:59:01.953Z,3.72
2022-12-26T13:01:38.346Z,2.85
2022-12-26T13:03:50.128Z,2.97
2022-12-26T13:06:18.300Z,3.20
2022-12-26T13:08:37.468Z,2.53
2022-12-26T13:10:47.251Z,2.67
2022-12-26T13:12:50.535Z,2.60
2022-12-26T13:15:00.355Z,2.33
2022-12-26T13:17:16.207Z,2.60
2022-12-26T13:19:28.971Z,2.10
2022-12-26T13:21:38.659Z,2.90
2022-12-26T13:24:08.973Z,2.25
2022-12-26T13:26:20.652Z,2.28
2022-12-26T13:28:29.137Z,2.50
2022-12-26T13:30:31.885Z,2.30
2022-12-26T13:32:33.727Z,2.22
2022-12-26T13:34:36.125Z,2.22
2022-12-26T13:36:42.394Z,2.70
2022-12-26T13:39:12.922Z,1.80
2022-12-26T13:41:36.692Z,2.72
2022-12-26T13:44:02.772Z,2.20
2022-12-26T13:46:04.770Z,2.03
2022-12-26T13:48:15.373Z,2.05
2022-12-26T13:50:55.169Z,2.05
2022-12-26T13:52:58.813Z,1.97
2022-12-26T13:55:06.686Z,1.90
2022-12-26T13:57:19.802Z,1.80
2022-12-26T13:59:41.587Z,1.65
2022-12-26T14:02:01.549Z,1.48
2022-12-26T14:04:37.599Z,1.65
2022-12-26T14:06:42.292Z,1.90
2022-12-26T14:08:44.903Z,1.20
2022-12-26T14:11:20.518Z,1.10
2022-12-26T14:13:56.347Z,1.50
2022-12-26T14:16:09.260Z,1.70
2022-12-26T14:18:16.760Z,1.48
2022-12-26T14:20:49.092Z,1.42
2022-12-26T14:23:04.263Z,1.60
2022-12-26T14:25:22.930Z,1.00
2022-12-26T14:27:32.316Z,1.40
2022-12-26T14:29:48.744Z,1.00
2022-12-26T14:32:03.324Z,1.25
2022-12-26T14:34:35.206Z,1.17
2022-12-26T14:36:52.545Z,1.52
2022-12-26T14:39:02.673Z,1.17
2022-12-26T14:41:32.148Z,1.10
2022-12-26T14:43:38.929Z,1.17
2022-12-26T14:45:49.421Z,1.60
2022-12-26T14:47:51.500Z,1.52
2022-12-26T14:49:53.312Z,1.30
2022-12-26T14:51:55.093Z,1.17
2022-12-26T14:54:36.163Z,1.20
2022-12-26T14:56:38.260Z,1.08
2022-12-26T14:58:50.222Z,1.20
2022-12-26T15:00:53.391Z,1.20
2022-12-26T15:03:03.837Z,1.30
2022-12-26T15:05:18.225Z,1.42
2022-12-26T15:07:37.947Z,1.20
2022-12-26T15:09:58.123Z,1.20
2022-12-26T15:12:44.281Z,1.15
2022-12-26T15:14:48.897Z,0.93
2022-12-26T15:17:00.099Z,0.98
2022-12-26T15:19:26.402Z,1.13
2022-12-26T15:21:55.308Z,0.82
2022-12-26T15:29:19.064Z,1.05
2022-12-26T15:31:36.366Z,1.20
2022-12-26T15:34:16.837Z,0.93
2022-12-26T15:36:49.538Z,0.80
2022-12-26T15:39:01.086Z,0.93
2022-12-26T15:41:25.797Z,0.98
2022-12-26T15:43:47.339Z,0.93
2022-12-26T15:46:10.901Z,1.08
2022-12-26T15:48:29.825Z,0.75
2022-12-26T15:50:48.577Z,0.90
2022-12-26T15:53:10.951Z,0.73
2022-12-26T15:55:24.296Z,0.80
2022-12-26T15:57:31.769Z,0.85
2022-12-26T15:59:59.507Z,0.70
2022-12-26T16:02:01.640Z,1.00
2022-12-26T16:04:07.701Z,1.00
2022-12-26T16:06:27.971Z,0.68
2022-12-26T16:08:40.471Z,0.93
2022-12-26T16:10:42.603Z,0.93
2022-12-26T16:12:58.729Z,0.88
2022-12-26T16:15:13.616Z,0.70
2022-12-26T16:17:15.266Z,0.70
2022-12-26T16:19:20.926Z,0.80
2022-12-26T16:21:45.291Z,0.80
2022-12-26T16:23:49.372Z,0.75
2022-12-26T16:25:54.137Z,0.88
2022-12-26T16:27:58.353Z,0.80
2022-12-26T16:30:11.286Z,0.70
2022-12-26T16:32:17.739Z,0.70
2022-12-26T16:34:20.694Z,0.88
2022-12-26T16:36:27.886Z,0.70
2022-12-26T16:38:31.370Z,0.80
2022-12-26T16:40:44.328Z,0.80
2022-12-26T16:43:00.585Z,0.75
2022-12-26T16:45:02.928Z,0.70
2022-12-26T16:47:11.370Z,0.80
2022-12-26T16:49:13.171Z,1.35
2022-12-26T16:51:33.399Z,1.70
2022-12-26T16:53:35.079Z,1.60
2022-12-26T16:55:36.843Z,1.63
2022-12-26T16:57:42.268Z,1.20
2022-12-26T16:59:57.521Z,1.42
2022-12-26T17:02:00.504Z,1.42
2022-12-26T17:04:18.539Z,1.80
2022-12-26T17:06:35.648Z,1.63
2022-12-26T17:08:42.472Z,1.58
2022-12-26T17:10:50.231Z,1.90
2022-12-26T17:12:53.000Z,1.50
2022-12-26T17:14:56.957Z,1.77
2022-12-26T17:17:01.055Z,2.63
2022-12-26T17:19:20.589Z,3.72
2022-12-26T17:21:31.502Z,3.45
2022-12-26T17:23:39.843Z,3.92
2022-12-26T17:25:45.629Z,5.22
2022-12-26T17:28:08.860Z,5.60
2022-12-26T17:30:37.784Z,5.75
2022-12-26T17:32:43.070Z,5.53
2022-12-26T17:34:44.893Z,4.78
2022-12-26T17:37:17.723Z,4.30
2022-12-26T17:39:13.024Z,4.45
2022-12-26T17:41:16.869Z,4.07
2022-12-26T17:43:25.263Z,4.20
2022-12-26T17:45:27.531Z,4.68
2022-12-26T17:47:29.159Z,3.97
2022-12-26T17:49:30.816Z,8.80
2022-12-26T17:51:33.523Z,70.57
2022-12-26T17:53:41.077Z,60.47
2022-12-26T17:55:42.722Z,52.80
2022-12-26T17:57:44.379Z,48.22
2022-12-26T17:59:46.143Z,45.45
2022-12-26T18:01:47.833Z,40.47
2022-12-26T18:03:50.158Z,39.95
2022-12-26T18:05:56.232Z,36.92
2022-12-26T18:07:59.272Z,35.85
2022-12-26T18:10:02.196Z,34.53
2022-12-26T18:12:04.090Z,31.70
2022-12-26T18:14:06.461Z,32.05
2022-12-26T18:16:15.040Z,30.25
2022-12-26T18:18:38.737Z,29.58
2022-12-26T18:20:40.351Z,26.65
2022-12-26T18:22:41.970Z,25.67
2022-12-26T18:24:44.017Z,25.85
2022-12-26T18:26:45.738Z,26.42
2022-12-26T18:28:49.931Z,23.65
2022-12-26T18:30:51.555Z,21.52
2022-12-26T18:32:54.236Z,21.33
2022-12-26T18:34:56.461Z,21.65
2022-12-26T18:36:58.137Z,22.08
2022-12-26T18:38:59.944Z,20.05
2022-12-26T18:41:02.367Z,20.30
2022-12-26T18:43:05.768Z,18.83
2022-12-26T18:45:07.629Z,18.73
2022-12-26T18:47:17.622Z,17.70
2022-12-26T18:49:19.253Z,19.20
2022-12-26T18:51:21.378Z,18.15
2022-12-26T18:53:22.974Z,16.45
2022-12-26T18:55:26.062Z,15.80
2022-12-26T18:57:27.661Z,14.90
2022-12-26T18:59:29.325Z,15.23
2022-12-26T19:01:31.066Z,14.48
2022-12-26T19:03:32.793Z,12.93
2022-12-26T19:05:34.604Z,12.40
2022-12-26T19:07:36.242Z,13.52
2022-12-26T19:09:37.894Z,12.13
2022-12-26T19:11:41.127Z,12.48
2022-12-26T19:13:43.363Z,12.05
2022-12-26T19:15:46.998Z,11.43
2022-12-26T19:17:48.663Z,10.55
2022-12-26T19:19:50.328Z,10.82
2022-12-26T19:21:51.933Z,10.57
2022-12-26T19:23:53.621Z,9.32
2022-12-26T19:25:55.281Z,9.93
2022-12-26T19:27:57.887Z,9.38
2022-12-26T19:29:59.531Z,9.95
2022-12-26T19:32:01.221Z,9.20
2022-12-26T19:34:02.889Z,8.90
2022-12-26T19:36:05.594Z,9.02
2022-12-26T19:38:07.726Z,8.10
2022-12-26T19:40:10.183Z,8.40
2022-12-26T19:42:11.860Z,7.97
2022-12-26T19:44:13.495Z,7.40
2022-12-26T19:46:15.707Z,8.07
2022-12-26T19:48:17.466Z,7.68
2022-12-26T19:50:19.278Z,7.53
2022-12-26T19:52:20.956Z,7.20
2022-12-26T19:54:22.682Z,6.03
2022-12-26T19:56:26.721Z,7.15
2022-12-26T19:58:30.522Z,6.90
2022-12-26T20:00:32.149Z,6.82
2022-12-26T20:02:34.003Z,6.13
2022-12-26T20:04:35.747Z,6.30
2022-12-26T20:06:38.240Z,5.80
2022-12-26T20:08:41.526Z,6.45
2022-12-26T20:10:43.307Z,5.90
2022-12-26T20:12:44.917Z,5.97
2022-12-26T20:14:46.579Z,6.13
2022-12-26T20:17:08.791Z,6.40
2022-12-26T20:19:11.385Z,5.88
2022-12-26T20:21:14.152Z,5.18
2022-12-26T20:23:15.810Z,5.13
2022-12-26T20:25:17.479Z,5.28
2022-12-26T20:27:19.260Z,4.50
2022-12-26T20:29:21.031Z,4.68
2022-12-26T20:31:23.199Z,4.68
2022-12-26T20:33:25.072Z,5.10
2022-12-26T20:35:26.689Z,4.82
2022-12-26T20:37:28.365Z,5.22
2022-12-26T20:39:31.845Z,4.30
2022-12-26T20:41:34.317Z,4.63
2022-12-26T20:43:36.503Z,4.47
2022-12-26T20:45:38.487Z,4.40
2022-12-26T20:47:40.107Z,4.85
2022-12-26T20:49:41.801Z,4.63
2022-12-26T20:51:44.746Z,4.07
2022-12-26T20:53:46.631Z,3.85
2022-12-26T20:55:52.883Z,4.25
2022-12-26T20:57:54.570Z,4.00
2022-12-26T20:59:56.227Z,4.25
2022-12-26T21:01:57.913Z,3.95
2022-12-26T21:04:00.042Z,3.95
2022-12-26T21:06:29.360Z,3.40
2022-12-26T21:08:31.067Z,3.67
2022-12-26T21:10:33.128Z,4.03
2022-12-26T21:12:34.788Z,3.60
2022-12-26T21:14:36.467Z,3.35
2022-12-26T21:16:44.436Z,3.38
2022-12-26T21:18:46.581Z,3.17
2022-12-26T21:20:48.194Z,3.20
2022-12-26T21:22:49.927Z,3.75
2022-12-26T21:24:51.623Z,3.03
2022-12-26T21:26:53.895Z,3.58
2022-12-26T21:29:01.012Z,2.78
2022-12-26T21:31:03.277Z,2.88
2022-12-26T21:33:04.946Z,3.20
2022-12-26T21:35:07.014Z,3.30
2022-12-26T21:37:27.443Z,2.70
2022-12-26T21:39:29.139Z,2.80
2022-12-26T21:41:30.776Z,2.58
2022-12-26T21:43:32.517Z,2.67
2022-12-26T21:45:34.146Z,2.80
2022-12-26T21:47:35.789Z,2.38
2022-12-26T21:49:37.592Z,2.65
2022-12-26T21:51:39.241Z,3.33
2022-12-26T21:53:41.522Z,2.88
2022-12-26T21:55:43.131Z,2.10
2022-12-26T21:57:44.731Z,2.15
2022-12-26T21:59:59.524Z,2.17
2022-12-26T22:02:01.688Z,2.22
2022-12-26T22:04:23.391Z,1.90
2022-12-26T22:06:25.028Z,2.50
2022-12-26T22:08:26.687Z,2.25
2022-12-26T22:10:49.652Z,2.65
2022-12-26T22:12:57.238Z,1.90
2022-12-26T22:14:58.898Z,1.80
2022-12-26T22:17:00.583Z,2.50
2022-12-26T22:19:02.293Z,2.20
2022-12-26T22:21:14.619Z,2.60
2022-12-26T22:23:16.335Z,6.43
2022-12-26T22:25:19.041Z,6.97
2022-12-26T22:27:20.702Z,6.65
2022-12-26T22:29:22.337Z,5.22
2022-12-26T22:31:32.932Z,5.43
2022-12-26T22:33:34.692Z,4.85
2022-12-26T22:35:36.316Z,4.70
2022-12-26T22:37:38.121Z,4.32
2022-12-26T22:39:39.781Z,4.55
2022-12-26T22:41:41.385Z,4.30
2022-12-26T22:43:43.351Z,4.18
2022-12-26T22:45:44.992Z,4.32
2022-12-26T22:47:46.670Z,4.50
2022-12-26T22:49:48.309Z,4.10
2022-12-26T22:51:49.916Z,3.88
2022-12-26T22:53:56.578Z,3.45
2022-12-26T22:56:04.434Z,4.05
2022-12-26T22:58:06.097Z,3.63
2022-12-26T23:00:13.007Z,4.30
2022-12-26T23:02:15.328Z,3.35
2022-12-26T23:04:17.304Z,4.03
2022-12-26T23:06:22.604Z,3.47
2022-12-26T23:08:27.105Z,3.42
2022-12-26T23:10:29.312Z,3.10
2022-12-26T23:12:43.116Z,3.20
2022-12-26T23:14:45.443Z,3.63
2022-12-26T23:16:58.285Z,2.63
2022-12-26T23:19:49.871Z,3.22
2022-12-26T23:23:53.185Z,2.78
2022-12-26T23:25:54.801Z,3.15
2022-12-26T23:28:15.076Z,3.05
2022-12-26T23:30:19.838Z,2.83
2022-12-26T23:32:21.464Z,3.08
2022-12-26T23:34:23.372Z,2.50
2022-12-26T23:36:24.988Z,2.90
2022-12-26T23:38:26.662Z,2.42
2022-12-26T23:40:28.689Z,3.05
2022-12-26T23:42:30.332Z,2.47
2022-12-26T23:44:32.009Z,2.20
2022-12-26T23:46:34.103Z,2.42
2022-12-26T23:48:35.784Z,2.35
2022-12-26T23:50:38.307Z,2.72
2022-12-26T23:52:40.173Z,2.33
2022-12-26T23:54:41.843Z,2.30
2022-12-26T23:56:43.513Z,1.95
2022-12-26T23:58:45.145Z,1.98
